createdAt,value
2023-03-08T00:01:54.129Z,5.27
2023-03-08T00:04:23.671Z,5.60
2023-03-08T00:06:51.779Z,4.90
2023-03-08T00:09:19.815Z,4.87
2023-03-08T00:11:47.809Z,5.10
2023-03-08T00:14:15.828Z,5.13
2023-03-08T00:16:45.756Z,4.60
2023-03-08T00:19:13.805Z,4.80
2023-03-08T00:21:43.199Z,4.93
2023-03-08T00:24:12.070Z,5.57
2023-03-08T00:26:40.107Z,5.00
2023-03-08T00:29:08.276Z,5.10
2023-03-08T00:31:36.436Z,4.90
2023-03-08T00:34:09.795Z,4.93
2023-03-08T00:36:37.839Z,4.87
2023-03-08T00:39:07.248Z,5.40
2023-03-08T00:41:35.320Z,5.00
2023-03-08T00:44:03.434Z,5.00
2023-03-08T00:46:31.534Z,5.03
2023-03-08T00:48:59.897Z,4.93
2023-03-08T00:51:27.921Z,5.30
2023-03-08T00:53:55.965Z,5.20
2023-03-08T00:56:25.338Z,5.17
2023-03-08T00:58:53.354Z,5.63
2023-03-08T01:01:21.500Z,5.00
2023-03-08T01:03:49.560Z,4.97
2023-03-08T01:06:17.571Z,5.50
2023-03-08T01:08:45.993Z,4.97
2023-03-08T01:11:18.285Z,4.80
2023-03-08T01:13:47.749Z,5.00
2023-03-08T01:16:17.208Z,5.57
2023-03-08T01:18:45.235Z,5.00
2023-03-08T01:21:13.524Z,5.43
2023-03-08T01:23:42.620Z,5.40
2023-03-08T01:26:12.933Z,5.80
2023-03-08T01:28:41.036Z,6.20
2023-03-08T01:31:12.460Z,5.07
2023-03-08T01:33:40.495Z,5.70
2023-03-08T01:36:09.774Z,5.50
2023-03-08T01:38:37.897Z,4.97
2023-03-08T01:41:06.847Z,5.60
2023-03-08T01:43:35.588Z,4.97
2023-03-08T01:46:23.317Z,5.93
2023-03-08T01:48:55.732Z,5.60
2023-03-08T01:51:27.179Z,5.57
2023-03-08T01:53:55.301Z,5.57
2023-03-08T01:56:23.361Z,5.17
2023-03-08T01:58:51.540Z,5.40
2023-03-08T02:01:20.233Z,5.87
2023-03-08T02:03:48.470Z,5.63
2023-03-08T02:06:17.905Z,5.80
2023-03-08T02:08:45.937Z,5.00
2023-03-08T02:11:14.085Z,5.70
2023-03-08T02:13:42.163Z,5.07
2023-03-08T02:16:11.161Z,5.80
2023-03-08T02:18:39.187Z,5.67
2023-03-08T02:21:07.226Z,5.40
2023-03-08T02:23:36.599Z,5.20
2023-03-08T02:26:06.077Z,4.83
2023-03-08T02:28:34.124Z,4.80
2023-03-08T02:31:03.044Z,5.23
2023-03-08T02:33:32.411Z,6.13
2023-03-08T02:36:02.025Z,5.67
2023-03-08T02:38:30.169Z,5.30
2023-03-08T02:40:59.569Z,6.10
2023-03-08T02:43:27.739Z,5.07
2023-03-08T02:45:55.779Z,6.00
2023-03-08T02:48:23.871Z,5.70
2023-03-08T02:50:51.914Z,5.23
2023-03-08T02:53:19.941Z,6.77
2023-03-08T02:55:47.956Z,5.87
2023-03-08T02:58:17.492Z,5.80
2023-03-08T03:00:45.561Z,5.53
2023-03-08T03:03:13.582Z,6.20
2023-03-08T03:05:44.801Z,5.80
2023-03-08T03:08:12.869Z,5.60
2023-03-08T03:10:41.754Z,6.03
2023-03-08T03:13:09.806Z,5.77
2023-03-08T03:15:40.836Z,5.80
2023-03-08T03:18:08.912Z,5.77
2023-03-08T03:20:36.978Z,5.87
2023-03-08T03:23:04.968Z,5.70
2023-03-08T03:25:33.026Z,5.90
2023-03-08T03:28:01.092Z,5.50
2023-03-08T03:30:29.149Z,5.77
2023-03-08T03:32:58.537Z,4.93
2023-03-08T03:35:26.616Z,6.30
2023-03-08T03:37:54.650Z,5.50
2023-03-08T03:40:22.719Z,5.60
2023-03-08T03:42:50.893Z,5.43
2023-03-08T03:45:19.128Z,5.50
2023-03-08T03:47:48.081Z,5.93
2023-03-08T03:50:18.154Z,5.50
2023-03-08T03:52:46.238Z,5.77
2023-03-08T03:55:14.325Z,6.23
2023-03-08T03:57:42.460Z,5.60
2023-03-08T04:00:11.661Z,5.33
2023-03-08T04:02:39.730Z,6.10
2023-03-08T04:05:08.342Z,5.97
2023-03-08T04:07:37.743Z,6.40
2023-03-08T04:10:06.657Z,6.90
2023-03-08T04:12:34.678Z,6.43
2023-03-08T04:15:04.083Z,5.33
2023-03-08T04:17:32.135Z,6.30
2023-03-08T04:20:00.278Z,6.40
2023-03-08T04:22:28.334Z,6.80
2023-03-08T04:24:57.712Z,5.53
2023-03-08T04:27:25.794Z,6.00
2023-03-08T04:29:53.895Z,6.00
2023-03-08T04:32:21.939Z,6.10
2023-03-08T04:34:50.029Z,5.80
2023-03-08T04:37:18.064Z,5.70
2023-03-08T04:39:46.084Z,6.50
2023-03-08T04:42:15.501Z,6.60
2023-03-08T04:44:43.538Z,6.20
2023-03-08T04:47:11.588Z,5.80
2023-03-08T04:49:39.596Z,5.80
2023-03-08T04:52:07.895Z,6.50
2023-03-08T04:54:35.911Z,5.30
2023-03-08T04:57:03.957Z,5.90
2023-03-08T04:59:33.483Z,5.80
2023-03-08T05:02:01.570Z,5.40
2023-03-08T05:04:29.632Z,6.17
2023-03-08T05:06:57.668Z,6.63
2023-03-08T05:09:25.732Z,5.67
2023-03-08T05:11:53.776Z,6.00
2023-03-08T05:14:22.398Z,5.67
2023-03-08T05:16:51.816Z,5.40
2023-03-08T05:19:19.827Z,5.33
2023-03-08T05:21:47.853Z,5.97
2023-03-08T05:24:15.882Z,5.63
2023-03-08T05:26:43.922Z,6.30
2023-03-08T05:29:11.939Z,5.40
2023-03-08T05:31:40.136Z,5.83
2023-03-08T05:34:11.007Z,6.63
2023-03-08T05:36:39.056Z,5.67
2023-03-08T05:39:07.823Z,5.87
2023-03-08T05:41:35.817Z,6.10
2023-03-08T05:44:03.848Z,5.90
2023-03-08T05:46:32.129Z,5.70
2023-03-08T05:49:00.248Z,6.37
2023-03-08T05:51:29.712Z,5.97
2023-03-08T05:53:57.769Z,6.20
2023-03-08T05:56:26.037Z,6.03
2023-03-08T05:58:54.107Z,5.97
2023-03-08T06:01:23.177Z,6.40
2023-03-08T06:03:52.561Z,5.83
2023-03-08T06:06:20.865Z,5.80
2023-03-08T06:08:50.251Z,6.27
2023-03-08T06:11:18.388Z,6.00
2023-03-08T06:13:52.040Z,5.63
2023-03-08T06:16:20.126Z,5.60
2023-03-08T06:18:52.057Z,6.00
2023-03-08T06:21:21.241Z,5.57
2023-03-08T06:23:50.803Z,5.43
2023-03-08T06:26:22.057Z,5.13
2023-03-08T06:28:50.089Z,5.10
2023-03-08T06:31:19.060Z,5.37
2023-03-08T06:33:47.114Z,5.30
2023-03-08T06:36:18.286Z,4.80
2023-03-08T06:38:46.341Z,5.50
2023-03-08T06:41:16.469Z,5.20
2023-03-08T06:43:44.537Z,4.40
2023-03-08T06:46:13.541Z,5.40
2023-03-08T06:48:41.899Z,5.37
2023-03-08T06:51:10.006Z,5.00
2023-03-08T06:53:38.228Z,5.00
2023-03-08T06:56:06.834Z,4.10
2023-03-08T06:58:41.605Z,4.60
2023-03-08T07:01:10.250Z,4.20
2023-03-08T07:03:38.373Z,4.00
2023-03-08T07:06:07.980Z,4.87
2023-03-08T07:08:36.239Z,4.30
2023-03-08T07:11:04.483Z,4.23
2023-03-08T07:13:32.564Z,4.07
2023-03-08T07:16:07.064Z,3.80
2023-03-08T07:18:35.505Z,3.70
2023-03-08T07:21:03.583Z,4.37
2023-03-08T07:23:31.659Z,4.30
2023-03-08T07:25:59.676Z,3.87
2023-03-08T07:28:27.768Z,3.67
2023-03-08T07:30:55.811Z,3.67
2023-03-08T07:33:25.256Z,3.80
2023-03-08T07:35:53.337Z,3.30
2023-03-08T07:38:21.397Z,3.47
2023-03-08T07:40:55.314Z,3.30
2023-03-08T07:43:23.387Z,3.77
2023-03-08T07:45:52.105Z,3.33
2023-03-08T07:48:20.152Z,3.33
2023-03-08T07:50:49.699Z,3.17
2023-03-08T07:53:17.733Z,2.80
2023-03-08T07:55:45.830Z,3.30
2023-03-08T07:58:14.217Z,2.40
2023-03-08T08:00:46.330Z,3.03
2023-03-08T08:03:14.445Z,2.87
2023-03-08T08:05:42.578Z,2.27
2023-03-08T08:08:14.109Z,2.27
2023-03-08T08:10:42.216Z,2.47
2023-03-08T08:13:10.306Z,2.60
2023-03-08T08:15:38.338Z,2.30
2023-03-08T08:18:06.692Z,2.40
2023-03-08T08:20:34.721Z,1.90
2023-03-08T08:23:02.727Z,2.03
2023-03-08T08:25:32.104Z,2.10
2023-03-08T08:28:00.139Z,1.97
2023-03-08T08:30:28.170Z,2.57
2023-03-08T08:32:56.232Z,1.40
2023-03-08T08:35:42.145Z,2.07
2023-03-08T08:38:10.965Z,2.00
2023-03-08T08:40:40.363Z,1.57
2023-03-08T08:43:08.401Z,2.23
2023-03-08T08:45:36.566Z,1.50
2023-03-08T08:48:05.885Z,1.80
2023-03-08T08:50:35.144Z,1.47
2023-03-08T08:53:03.295Z,1.60
2023-03-08T08:55:31.338Z,1.40
2023-03-08T08:58:00.798Z,1.63
2023-03-08T09:00:28.797Z,1.40
2023-03-08T09:02:56.820Z,1.40
2023-03-08T09:05:24.945Z,1.70
2023-03-08T09:07:54.924Z,1.53
2023-03-08T09:10:23.090Z,1.23
2023-03-08T09:12:51.225Z,1.83
2023-03-08T09:15:21.794Z,1.30
2023-03-08T09:17:49.869Z,1.40
2023-03-08T09:20:18.053Z,1.17
2023-03-08T09:22:46.213Z,1.23
2023-03-08T09:25:14.553Z,1.20
2023-03-08T09:27:43.032Z,0.93
2023-03-08T09:30:16.550Z,1.00
2023-03-08T09:32:46.013Z,1.30
2023-03-08T09:35:15.420Z,0.90
2023-03-08T09:37:43.495Z,0.90
2023-03-08T09:40:19.083Z,0.87
2023-03-08T09:42:47.108Z,0.90
2023-03-08T09:45:19.486Z,0.80
2023-03-08T09:47:50.514Z,1.20
2023-03-08T09:50:34.890Z,1.00
2023-03-08T09:53:07.043Z,1.10
2023-03-08T09:55:36.300Z,0.90
2023-03-08T09:58:06.343Z,1.13
2023-03-08T10:00:41.527Z,1.20
2023-03-08T10:03:31.090Z,0.87
2023-03-08T10:06:01.880Z,0.70
2023-03-08T10:08:33.681Z,1.10
2023-03-08T10:11:03.638Z,1.00
2023-03-08T10:13:33.059Z,1.10
2023-03-08T10:16:06.980Z,0.90
2023-03-08T10:18:39.723Z,0.90
2023-03-08T10:21:07.785Z,0.70
2023-03-08T10:23:36.913Z,0.70
2023-03-08T10:26:07.123Z,0.70
2023-03-08T10:28:35.260Z,0.83
2023-03-08T10:31:19.418Z,0.90
2023-03-08T10:33:49.502Z,0.80
2023-03-08T10:36:21.142Z,0.83
2023-03-08T10:38:58.758Z,0.80
2023-03-08T10:41:26.807Z,0.90
2023-03-08T10:43:55.961Z,0.90
2023-03-08T10:46:25.319Z,0.90
2023-03-08T10:48:54.792Z,0.70
2023-03-08T10:51:23.877Z,0.80
2023-03-08T10:53:55.516Z,0.87
2023-03-08T10:56:26.222Z,0.70
2023-03-08T10:58:56.687Z,1.00
2023-03-08T11:01:26.227Z,0.80
2023-03-08T11:04:02.561Z,0.80
2023-03-08T11:06:30.582Z,0.87
2023-03-08T11:09:00.329Z,0.80
2023-03-08T11:11:28.462Z,0.90
2023-03-08T11:13:56.644Z,0.90
2023-03-08T11:16:36.065Z,1.00
2023-03-08T11:19:17.553Z,0.70
2023-03-08T11:21:51.140Z,0.60
2023-03-08T11:24:26.336Z,0.77
2023-03-08T11:27:02.315Z,0.77
2023-03-08T11:29:38.396Z,0.93
2023-03-08T11:32:12.079Z,0.70
2023-03-08T11:34:47.090Z,0.80
2023-03-08T11:37:18.794Z,0.57
2023-03-08T11:39:47.693Z,0.70
2023-03-08T11:42:20.956Z,1.00
2023-03-08T11:45:10.733Z,0.50
2023-03-08T11:48:03.932Z,0.80
2023-03-08T11:50:35.120Z,0.70
2023-03-08T11:53:09.860Z,0.67
2023-03-08T11:56:00.254Z,0.73
2023-03-08T11:58:31.439Z,0.93
2023-03-08T12:01:01.848Z,0.80
2023-03-08T12:03:32.244Z,0.97
2023-03-08T12:06:04.023Z,0.77
2023-03-08T12:08:35.262Z,0.70
2023-03-08T12:11:04.806Z,0.60
2023-03-08T12:13:34.945Z,0.80
2023-03-08T12:16:06.149Z,1.00
2023-03-08T12:18:38.784Z,0.83
2023-03-08T12:21:14.679Z,1.07
2023-03-08T12:23:46.324Z,0.90
2023-03-08T12:26:18.758Z,1.00
2023-03-08T12:28:48.221Z,0.80
2023-03-08T12:31:27.750Z,0.90
2023-03-08T12:33:56.887Z,0.70
2023-03-08T12:36:39.883Z,0.80
2023-03-08T12:39:08.733Z,0.73
2023-03-08T12:41:36.846Z,0.80
2023-03-08T12:44:06.329Z,0.70
2023-03-08T12:47:02.258Z,0.70
2023-03-08T12:49:33.202Z,1.00
2023-03-08T12:52:04.236Z,0.70
2023-03-08T12:54:34.068Z,0.80
2023-03-08T12:57:02.804Z,0.93
2023-03-08T12:59:34.807Z,1.00
2023-03-08T13:02:16.325Z,0.70
2023-03-08T13:04:44.443Z,1.07
2023-03-08T13:07:28.349Z,0.87
2023-03-08T13:09:59.542Z,0.80
2023-03-08T13:12:38.692Z,0.83
2023-03-08T13:15:22.224Z,0.80
2023-03-08T13:17:51.800Z,0.80
2023-03-08T13:20:21.628Z,0.80
2023-03-08T13:23:19.958Z,0.80
2023-03-08T13:26:20.091Z,1.10
2023-03-08T13:28:48.659Z,0.90
2023-03-08T13:31:18.433Z,0.90
2023-03-08T13:33:47.802Z,0.97
2023-03-08T13:36:18.488Z,1.00
2023-03-08T13:38:56.626Z,0.83
2023-03-08T13:41:33.684Z,1.07
2023-03-08T13:44:02.443Z,0.83
2023-03-08T13:46:30.636Z,1.00
2023-03-08T13:48:58.725Z,0.90
2023-03-08T13:51:27.950Z,1.13
2023-03-08T13:53:57.398Z,0.90
2023-03-08T13:56:26.521Z,0.83
2023-03-08T13:58:54.883Z,1.30
2023-03-08T14:01:24.372Z,1.07
2023-03-08T14:03:52.731Z,1.00
2023-03-08T14:06:22.579Z,0.80
2023-03-08T14:08:50.668Z,1.17
2023-03-08T14:11:21.053Z,1.30
2023-03-08T14:13:53.198Z,1.10
2023-03-08T14:16:26.155Z,1.00
2023-03-08T14:18:54.324Z,1.17
2023-03-08T14:21:23.102Z,1.30
2023-03-08T14:23:52.019Z,1.37
2023-03-08T14:26:32.235Z,1.13
2023-03-08T14:29:14.731Z,1.10
2023-03-08T14:31:57.468Z,1.40
2023-03-08T14:34:26.628Z,1.40
2023-03-08T14:36:56.741Z,1.33
2023-03-08T14:39:25.714Z,1.13
2023-03-08T14:41:55.096Z,1.90
2023-03-08T14:44:24.109Z,1.57
2023-03-08T14:46:58.365Z,1.40
2023-03-08T14:49:28.056Z,1.73
2023-03-08T14:51:56.482Z,1.40
2023-03-08T14:54:32.987Z,1.30
2023-03-08T14:57:09.487Z,1.73
2023-03-08T14:59:40.629Z,1.50
2023-03-08T15:02:11.400Z,1.67
2023-03-08T15:04:39.514Z,1.90
2023-03-08T15:07:07.566Z,1.50
2023-03-08T15:09:35.822Z,1.47
2023-03-08T15:12:07.664Z,1.57
2023-03-08T15:14:35.744Z,1.90
2023-03-08T15:17:03.798Z,1.70
2023-03-08T15:19:31.812Z,1.53
2023-03-08T15:22:01.519Z,1.90
2023-03-08T15:24:29.560Z,1.83
2023-03-08T15:26:57.605Z,1.90
2023-03-08T15:29:28.366Z,1.67
2023-03-08T15:31:56.584Z,1.50
2023-03-08T15:34:26.809Z,1.60
2023-03-08T15:36:56.064Z,1.90
2023-03-08T15:39:24.558Z,1.80
2023-03-08T15:41:52.728Z,1.77
2023-03-08T15:44:20.832Z,1.70
2023-03-08T15:46:52.621Z,1.47
2023-03-08T15:49:21.016Z,2.10
2023-03-08T15:51:49.056Z,2.00
2023-03-08T15:54:17.118Z,1.70
2023-03-08T15:56:45.165Z,1.90
2023-03-08T15:59:13.206Z,1.83
2023-03-08T16:01:41.243Z,1.80
2023-03-08T16:04:10.701Z,2.03
2023-03-08T16:06:38.737Z,2.10
2023-03-08T16:09:06.775Z,2.10
2023-03-08T16:11:34.879Z,2.03
2023-03-08T16:14:04.531Z,2.00
2023-03-08T16:16:44.930Z,1.90
2023-03-08T16:19:15.197Z,2.00
2023-03-08T16:21:43.243Z,2.00
2023-03-08T16:24:12.004Z,1.90
2023-03-08T16:26:40.087Z,2.00
2023-03-08T16:29:08.124Z,1.87
2023-03-08T16:31:36.410Z,1.60
2023-03-08T16:34:04.520Z,2.20
2023-03-08T16:36:33.977Z,1.97
2023-03-08T16:39:02.044Z,1.80
2023-03-08T16:41:30.149Z,2.23
2023-03-08T16:43:58.381Z,2.37
2023-03-08T16:46:26.439Z,1.90
2023-03-08T16:48:55.108Z,2.00
2023-03-08T16:51:30.589Z,1.77
2023-03-08T16:54:00.023Z,2.00
2023-03-08T16:56:28.712Z,1.90
2023-03-08T16:59:00.839Z,2.40
2023-03-08T17:01:28.953Z,2.13
2023-03-08T17:03:57.217Z,2.10
2023-03-08T17:06:26.119Z,2.20
2023-03-08T17:08:54.204Z,2.00
2023-03-08T17:11:24.131Z,2.23
2023-03-08T17:13:53.300Z,2.40
2023-03-08T17:16:21.952Z,1.97
2023-03-08T17:18:50.327Z,2.50
2023-03-08T17:21:18.586Z,2.27
2023-03-08T17:23:46.663Z,2.50
2023-03-08T17:26:14.893Z,2.67
2023-03-08T17:28:44.338Z,3.07
2023-03-08T17:31:13.614Z,2.63
2023-03-08T17:33:41.689Z,2.67
2023-03-08T17:36:10.299Z,2.97
2023-03-08T17:38:38.472Z,3.10
2023-03-08T17:41:07.146Z,3.00
2023-03-08T17:43:35.273Z,3.00
2023-03-08T17:46:05.492Z,2.90
2023-03-08T17:48:33.657Z,3.10
2023-03-08T17:51:05.034Z,3.00
2023-03-08T17:53:33.088Z,3.07
2023-03-08T17:56:01.873Z,3.20
2023-03-08T17:58:29.937Z,2.87
2023-03-08T18:00:58.144Z,2.90
2023-03-08T18:03:27.588Z,3.80
2023-03-08T18:05:55.631Z,3.50
2023-03-08T18:08:23.746Z,3.50
2023-03-08T18:10:51.779Z,3.60
2023-03-08T18:13:22.657Z,3.30
2023-03-08T18:15:51.827Z,3.47
2023-03-08T18:18:20.750Z,3.30
2023-03-08T18:20:50.175Z,3.80
2023-03-08T18:23:24.689Z,3.97
2023-03-08T18:25:53.586Z,3.10
2023-03-08T18:28:21.643Z,3.70
2023-03-08T18:30:50.221Z,3.57
2023-03-08T18:33:18.452Z,4.07
2023-03-08T18:35:46.490Z,3.23
2023-03-08T18:38:16.290Z,3.60
2023-03-08T18:40:44.603Z,3.60
2023-03-08T18:43:12.658Z,3.53
2023-03-08T18:45:51.699Z,4.17
2023-03-08T18:48:19.805Z,3.80
2023-03-08T18:50:47.834Z,3.63
2023-03-08T18:53:17.266Z,3.50
2023-03-08T18:55:54.328Z,3.43
2023-03-08T18:58:22.985Z,4.03
2023-03-08T19:00:52.865Z,3.80
2023-03-08T19:03:20.966Z,4.17
2023-03-08T19:05:49.058Z,3.93
2023-03-08T19:08:18.486Z,4.00
2023-03-08T19:10:46.512Z,4.50
2023-03-08T19:13:14.579Z,4.40
2023-03-08T19:15:42.829Z,4.47
2023-03-08T19:18:11.250Z,4.30
2023-03-08T19:20:39.459Z,4.40
2023-03-08T19:23:07.492Z,4.00
2023-03-08T19:25:59.086Z,4.73
2023-03-08T19:28:27.178Z,4.70
2023-03-08T19:30:58.727Z,4.43
2023-03-08T19:33:31.374Z,4.93
2023-03-08T19:36:00.076Z,5.43
2023-03-08T19:38:28.179Z,4.87
2023-03-08T19:40:57.605Z,5.00
2023-03-08T19:43:25.692Z,5.57
2023-03-08T19:45:53.750Z,5.63
2023-03-08T19:48:21.854Z,5.10
2023-03-08T19:50:49.898Z,5.77
2023-03-08T19:53:17.939Z,5.03
2023-03-08T19:55:52.193Z,5.17
2023-03-08T19:58:21.877Z,5.60
2023-03-08T20:00:50.029Z,5.90
2023-03-08T20:03:18.100Z,6.50
2023-03-08T20:05:48.048Z,5.37
2023-03-08T20:08:16.109Z,5.70
2023-03-08T20:10:44.115Z,5.90
2023-03-08T20:13:12.150Z,5.43
2023-03-08T20:15:41.527Z,5.77
2023-03-08T20:18:09.550Z,6.10
2023-03-08T20:20:37.588Z,6.10
2023-03-08T20:23:05.623Z,5.53
2023-03-08T20:25:34.734Z,6.13
2023-03-08T20:28:02.833Z,5.47
2023-03-08T20:30:30.859Z,6.53
2023-03-08T20:33:00.275Z,5.87
2023-03-08T20:35:28.509Z,5.83
2023-03-08T20:37:56.568Z,6.77
2023-03-08T20:40:24.663Z,6.47
2023-03-08T20:42:54.992Z,6.50
2023-03-08T20:45:23.898Z,5.87
2023-03-08T20:47:54.287Z,6.00
2023-03-08T20:50:23.911Z,6.00
2023-03-08T20:52:52.036Z,5.70
2023-03-08T20:55:20.070Z,6.40
2023-03-08T20:57:48.076Z,6.07
2023-03-08T21:00:16.723Z,6.20
2023-03-08T21:02:44.853Z,7.00
2023-03-08T21:05:13.173Z,6.27
2023-03-08T21:07:42.581Z,6.30
2023-03-08T21:10:11.773Z,7.50
2023-03-08T21:12:39.871Z,7.27
2023-03-08T21:15:09.151Z,6.50
2023-03-08T21:17:39.892Z,6.30
2023-03-08T21:20:09.535Z,6.30
2023-03-08T21:22:38.326Z,6.20
2023-03-08T21:25:08.436Z,6.30
2023-03-08T21:27:40.900Z,5.80
2023-03-08T21:30:10.311Z,7.20
2023-03-08T21:32:38.413Z,5.90
2023-03-08T21:35:07.046Z,6.20
2023-03-08T21:37:35.485Z,6.63
2023-03-08T21:40:06.028Z,6.27
2023-03-08T21:42:35.464Z,5.90
2023-03-08T21:45:03.488Z,5.80
2023-03-08T21:47:31.509Z,6.13
2023-03-08T21:49:59.745Z,5.90
2023-03-08T21:52:27.823Z,6.33
2023-03-08T21:54:55.827Z,5.87
2023-03-08T21:57:28.831Z,6.13
2023-03-08T21:59:58.231Z,5.93
2023-03-08T22:02:26.380Z,5.90
2023-03-08T22:04:54.471Z,6.30
2023-03-08T22:07:22.516Z,5.63
2023-03-08T22:09:50.612Z,6.10
2023-03-08T22:12:19.927Z,6.10
2023-03-08T22:14:47.942Z,5.30
2023-03-08T22:17:17.347Z,5.50
2023-03-08T22:19:45.379Z,5.67
2023-03-08T22:22:13.420Z,6.10
2023-03-08T22:24:41.447Z,5.70
2023-03-08T22:27:10.774Z,5.87
2023-03-08T22:29:38.808Z,5.40
2023-03-08T22:32:07.778Z,5.03
2023-03-08T22:34:37.238Z,5.20
2023-03-08T22:37:06.133Z,5.77
2023-03-08T22:39:34.260Z,5.30
2023-03-08T22:42:05.015Z,5.30
2023-03-08T22:44:33.043Z,5.23
2023-03-08T22:47:01.105Z,5.80
2023-03-08T22:49:29.172Z,6.00
2023-03-08T22:51:58.660Z,6.00
2023-03-08T22:54:26.686Z,5.77
2023-03-08T22:56:54.900Z,5.57
2023-03-08T22:59:23.189Z,5.30
2023-03-08T23:01:51.290Z,5.30
2023-03-08T23:04:20.193Z,5.40
2023-03-08T23:06:48.596Z,5.83
2023-03-08T23:09:18.124Z,5.80
2023-03-08T23:11:46.657Z,5.17
2023-03-08T23:14:14.685Z,4.93
2023-03-08T23:16:43.173Z,4.83
2023-03-08T23:19:12.792Z,5.10
2023-03-08T23:21:40.832Z,5.33
2023-03-08T23:24:09.099Z,5.33
2023-03-08T23:26:38.979Z,4.80
2023-03-08T23:29:07.124Z,5.80
2023-03-08T23:31:36.080Z,5.40
2023-03-08T23:34:04.562Z,6.37
2023-03-08T23:36:33.454Z,5.17
2023-03-08T23:39:03.589Z,5.53
2023-03-08T23:41:31.788Z,6.20
2023-03-08T23:44:01.915Z,5.30
2023-03-08T23:46:30.029Z,5.80
2023-03-08T23:48:58.839Z,5.47
2023-03-08T23:51:30.759Z,6.27
2023-03-08T23:53:59.772Z,6.37
2023-03-08T23:56:30.948Z,5.47
2023-03-08T23:59:01.255Z,5.30
